Terminal Aerodrome Forecast
Issued by NWS Jackson, KY

Home | Current Version | Previous Version | Text Only | Print | Product List | Glossary On
Versions: 1 2 3 4 5 6 7 8 9 10 11 12 13 14 15 16 17 18 19 20
000
FTUS43 KJKL 200500
TAFLOZ
TAF
KLOZ 200523Z 2006/2106 VRB03KT P6SM -DZ OVC030
     FM200900 VRB03KT 1SM BR OVC010
      TEMPO 2010/2014 1/4SM -DZ FG OVC005
     FM201400 VRB03KT 5SM BR OVC010
     FM201700 VRB03KT P6SM SCT015=

USA.gov is the U.S. government's official web portal to all federal, state and local government web resources and services.